createdAt,value
2019-02-23T00:01:51.015Z,99.90
2019-02-23T00:04:20.603Z,99.90
2019-02-23T00:06:49.768Z,99.90
2019-02-23T00:09:18.952Z,99.90
2019-02-23T00:11:48.548Z,99.90
2019-02-23T00:14:17.736Z,99.90
2019-02-23T00:16:47.142Z,99.90
2019-02-23T00:19:24.546Z,99.90
2019-02-23T00:21:47.788Z,99.90
2019-02-23T00:24:17.168Z,99.90
2019-02-23T00:26:46.415Z,99.90
2019-02-23T00:29:15.588Z,99.90
2019-02-23T00:31:45.122Z,99.90
2019-02-23T00:34:17.233Z,99.90
2019-02-23T00:36:46.628Z,99.90
2019-02-23T00:39:16.239Z,99.90
2019-02-23T00:41:46.528Z,99.90
2019-02-23T00:44:15.779Z,99.90
2019-02-23T00:46:44.987Z,99.90
2019-02-23T00:49:14.171Z,99.90
2019-02-23T00:51:43.930Z,99.90
2019-02-23T00:54:13.409Z,99.90
2019-02-23T00:56:42.708Z,99.90
2019-02-23T00:59:12.093Z,99.90
2019-02-23T01:01:42.487Z,99.90
2019-02-23T01:04:12.352Z,99.90
2019-02-23T01:06:41.576Z,99.90
2019-02-23T01:09:10.832Z,99.90
2019-02-23T01:11:41.102Z,99.90
2019-02-23T01:14:10.626Z,99.90
2019-02-23T01:16:39.880Z,99.90
2019-02-23T01:19:09.217Z,99.90
2019-02-23T01:21:38.901Z,99.90
2019-02-23T01:24:08.196Z,99.90
2019-02-23T01:26:37.361Z,99.90
2019-02-23T01:29:06.706Z,99.90
2019-02-23T01:31:36.080Z,99.90
2019-02-23T01:34:05.455Z,99.90
2019-02-23T01:36:34.697Z,99.90
2019-02-23T01:39:04.788Z,99.90
2019-02-23T01:41:33.953Z,99.90
2019-02-23T01:44:03.593Z,99.90
2019-02-23T01:46:32.768Z,99.90
2019-02-23T01:49:01.948Z,99.90
2019-02-23T01:51:32.068Z,99.90
2019-02-23T01:54:01.244Z,99.90
2019-02-23T01:56:30.647Z,99.90
2019-02-23T01:58:59.922Z,99.90
2019-02-23T02:01:29.196Z,99.90
2019-02-23T02:03:58.545Z,99.90
2019-02-23T02:06:27.744Z,99.90
2019-02-23T02:08:56.908Z,99.90
2019-02-23T02:11:27.500Z,99.90
2019-02-23T02:14:00.734Z,99.90
2019-02-23T02:16:28.050Z,99.90
2019-02-23T02:18:57.303Z,99.90
2019-02-23T02:21:26.692Z,99.90
2019-02-23T02:23:56.013Z,99.90
2019-02-23T02:26:25.254Z,99.90
2019-02-23T02:28:54.593Z,99.90
2019-02-23T02:31:24.041Z,99.90
2019-02-23T02:34:07.822Z,99.90
2019-02-23T02:36:37.074Z,99.90
2019-02-23T02:39:09.653Z,99.90
2019-02-23T02:41:38.830Z,99.90
2019-02-23T02:44:07.995Z,99.90
2019-02-23T02:46:37.244Z,99.90
2019-02-23T02:49:06.561Z,99.90
2019-02-23T02:51:35.913Z,99.90
2019-02-23T02:54:05.118Z,99.90
2019-02-23T02:56:34.455Z,99.90
2019-02-23T02:59:03.764Z,99.90
2019-02-23T03:01:33.005Z,99.90
2019-02-23T03:04:02.214Z,99.90
2019-02-23T03:06:31.886Z,99.90
2019-02-23T03:09:01.453Z,99.90
2019-02-23T03:11:30.643Z,99.90
2019-02-23T03:13:59.893Z,99.90
2019-02-23T03:16:30.833Z,99.90
2019-02-23T03:19:00.300Z,99.90
2019-02-23T03:21:29.560Z,99.90
2019-02-23T03:23:59.085Z,99.90
2019-02-23T03:26:28.668Z,99.90
2019-02-23T03:28:57.843Z,99.90
2019-02-23T03:31:27.021Z,99.90
2019-02-23T03:33:56.391Z,99.90
2019-02-23T03:36:26.007Z,99.90
2019-02-23T03:38:55.331Z,99.90
2019-02-23T03:41:24.738Z,99.90
2019-02-23T03:43:54.202Z,99.90
2019-02-23T03:46:23.372Z,99.90
2019-02-23T03:48:52.587Z,99.90
2019-02-23T03:51:22.173Z,99.90
2019-02-23T03:53:51.486Z,99.90
2019-02-23T03:56:20.657Z,99.90
2019-02-23T03:58:49.865Z,99.90
2019-02-23T04:01:19.726Z,99.90
2019-02-23T04:03:48.936Z,99.90
2019-02-23T04:06:18.971Z,99.90
2019-02-23T04:08:48.174Z,99.90
2019-02-23T04:11:17.343Z,99.90
2019-02-23T04:13:46.678Z,99.90
2019-02-23T04:16:15.976Z,99.90
2019-02-23T04:18:45.138Z,99.90
2019-02-23T04:21:17.875Z,99.90
2019-02-23T04:23:47.054Z,99.90
2019-02-23T04:26:19.653Z,99.90
2019-02-23T04:28:49.237Z,99.90
2019-02-23T04:31:19.511Z,99.90
2019-02-23T04:33:49.068Z,99.90
2019-02-23T04:36:18.372Z,99.90
2019-02-23T04:38:47.819Z,99.90
2019-02-23T04:41:18.097Z,99.90
2019-02-23T04:43:47.269Z,99.90
2019-02-23T04:46:16.902Z,99.90
2019-02-23T04:48:46.267Z,99.90
2019-02-23T04:51:15.732Z,99.90
2019-02-23T04:53:45.136Z,99.90
2019-02-23T04:56:14.321Z,99.90
2019-02-23T04:58:43.984Z,99.90
2019-02-23T05:01:13.185Z,99.90
2019-02-23T05:03:42.419Z,99.90
2019-02-23T05:06:11.581Z,99.90
2019-02-23T05:08:40.774Z,99.90
2019-02-23T05:11:09.960Z,99.90
2019-02-23T05:13:39.212Z,99.90
2019-02-23T05:16:08.477Z,99.90
2019-02-23T05:18:37.672Z,99.90
2019-02-23T05:21:06.834Z,99.90
2019-02-23T05:23:36.104Z,99.90
2019-02-23T05:26:05.281Z,99.90
2019-02-23T05:28:34.485Z,99.90
2019-02-23T05:31:03.664Z,99.90
2019-02-23T05:33:32.845Z,99.90
2019-02-23T05:36:02.031Z,99.90
2019-02-23T05:38:31.222Z,99.90
2019-02-23T05:41:00.421Z,99.90
2019-02-23T05:43:29.679Z,99.90
2019-02-23T05:45:58.873Z,99.90
2019-02-23T05:48:28.041Z,99.90
2019-02-23T05:50:57.241Z,99.90
2019-02-23T05:53:26.493Z,99.90
2019-02-23T05:55:55.689Z,99.90
2019-02-23T05:58:24.853Z,99.90
2019-02-23T06:00:54.067Z,99.90
2019-02-23T06:03:23.217Z,99.90
2019-02-23T06:05:52.403Z,99.90
2019-02-23T06:08:21.605Z,99.90
2019-02-23T06:10:50.803Z,99.90
2019-02-23T06:13:20.005Z,99.30
2019-02-23T06:15:49.241Z,99.50
2019-02-23T06:18:18.437Z,98.90
2019-02-23T06:20:47.602Z,99.10
2019-02-23T06:23:16.808Z,99.00
2019-02-23T06:25:46.049Z,99.10
2019-02-23T06:28:15.304Z,99.00
2019-02-23T06:30:44.552Z,99.50
2019-02-23T06:33:13.773Z,99.60
2019-02-23T06:35:42.965Z,99.50
2019-02-23T06:38:12.154Z,99.80
2019-02-23T06:40:41.492Z,99.90
2019-02-23T06:43:10.667Z,99.10
2019-02-23T06:45:39.839Z,98.40
2019-02-23T06:48:09.029Z,98.20
2019-02-23T06:50:38.287Z,97.80
2019-02-23T06:53:07.535Z,97.20
2019-02-23T06:55:36.806Z,97.30
2019-02-23T06:58:05.986Z,96.60
2019-02-23T07:00:35.277Z,97.00
2019-02-23T07:03:04.442Z,97.40
2019-02-23T07:05:33.652Z,97.60
2019-02-23T07:08:02.832Z,98.10
2019-02-23T07:10:32.108Z,98.40
2019-02-23T07:13:01.282Z,98.60
2019-02-23T07:15:30.483Z,98.60
2019-02-23T07:17:59.839Z,98.80
2019-02-23T07:20:29.031Z,99.20
2019-02-23T07:22:58.228Z,98.80
2019-02-23T07:25:27.427Z,98.10
2019-02-23T07:27:56.675Z,98.10
2019-02-23T07:30:26.003Z,98.20
2019-02-23T07:32:55.184Z,97.30
2019-02-23T07:35:24.348Z,96.60
2019-02-23T07:37:53.546Z,96.50
2019-02-23T07:40:22.726Z,96.10
2019-02-23T07:42:51.997Z,95.60
2019-02-23T07:45:21.175Z,96.00
2019-02-23T07:47:50.363Z,95.50
2019-02-23T07:50:19.537Z,95.20
2019-02-23T07:52:48.811Z,94.80
2019-02-23T07:55:18.000Z,94.20
2019-02-23T07:57:47.260Z,94.10
2019-02-23T08:00:16.435Z,94.00
2019-02-23T08:02:45.667Z,94.20
2019-02-23T08:05:14.828Z,94.00
2019-02-23T08:07:43.997Z,93.70
2019-02-23T08:10:13.317Z,94.00
2019-02-23T08:12:42.632Z,94.70
2019-02-23T08:15:11.928Z,94.00
2019-02-23T08:17:41.095Z,93.00
2019-02-23T08:20:10.304Z,92.90
2019-02-23T08:22:39.478Z,92.80
2019-02-23T08:25:09.008Z,92.00
2019-02-23T08:27:38.252Z,92.20
2019-02-23T08:30:09.056Z,91.20
2019-02-23T08:32:38.269Z,90.50
2019-02-23T08:35:07.776Z,90.40
2019-02-23T08:37:37.040Z,90.50
2019-02-23T08:40:06.245Z,90.80
2019-02-23T08:42:35.421Z,90.10
2019-02-23T08:45:04.696Z,90.20
2019-02-23T08:47:33.897Z,85.70
2019-02-23T08:50:03.066Z,86.80
2019-02-23T08:52:32.267Z,84.70
2019-02-23T08:55:01.452Z,82.40
2019-02-23T08:57:30.718Z,80.10
2019-02-23T08:59:59.891Z,77.70
2019-02-23T09:02:29.093Z,80.50
2019-02-23T09:04:58.327Z,79.00
2019-02-23T09:07:27.585Z,77.90
2019-02-23T09:09:56.789Z,80.00
2019-02-23T09:12:26.027Z,76.90
2019-02-23T09:14:55.219Z,79.80
2019-02-23T09:17:24.396Z,80.50
2019-02-23T09:19:53.565Z,78.30
2019-02-23T09:22:22.797Z,75.70
2019-02-23T09:24:51.998Z,73.50
2019-02-23T09:27:21.250Z,75.20
2019-02-23T09:29:50.451Z,75.60
2019-02-23T09:32:19.626Z,75.60
2019-02-23T09:34:48.893Z,76.40
2019-02-23T09:37:18.051Z,75.50
2019-02-23T09:39:47.309Z,70.80
2019-02-23T09:42:16.523Z,69.10
2019-02-23T09:44:45.797Z,68.00
2019-02-23T09:47:17.078Z,64.00
2019-02-23T09:49:49.021Z,67.20
2019-02-23T09:52:21.989Z,63.70
2019-02-23T09:54:56.703Z,62.00
2019-02-23T09:57:26.309Z,61.40
2019-02-23T09:59:56.037Z,62.50
2019-02-23T10:02:30.575Z,62.60
2019-02-23T10:05:00.143Z,61.90
2019-02-23T10:07:29.552Z,58.50
2019-02-23T10:09:59.259Z,56.50
2019-02-23T10:12:28.439Z,57.10
2019-02-23T10:14:57.607Z,58.30
2019-02-23T10:17:26.863Z,57.70
2019-02-23T10:19:56.200Z,56.50
2019-02-23T10:22:25.396Z,55.50
2019-02-23T10:24:54.558Z,56.30
2019-02-23T10:27:38.306Z,56.60
2019-02-23T10:30:08.672Z,55.10
2019-02-23T10:32:38.094Z,53.80
2019-02-23T10:35:09.174Z,55.00
2019-02-23T10:37:38.407Z,53.60
2019-02-23T10:40:08.903Z,51.40
2019-02-23T10:42:38.500Z,54.60
2019-02-23T10:45:10.615Z,53.60
2019-02-23T10:47:39.822Z,51.70
2019-02-23T10:50:09.445Z,51.80
2019-02-23T10:52:39.192Z,53.20
2019-02-23T10:55:09.431Z,51.70
2019-02-23T10:57:38.610Z,50.70
2019-02-23T11:00:14.092Z,50.50
2019-02-23T11:02:43.574Z,50.70
2019-02-23T11:05:12.968Z,50.00
2019-02-23T11:07:43.038Z,50.10
2019-02-23T11:10:12.320Z,51.70
2019-02-23T11:12:41.581Z,52.50
2019-02-23T11:15:11.664Z,50.70
2019-02-23T11:17:41.077Z,51.10
2019-02-23T11:20:10.943Z,46.90
2019-02-23T11:22:40.524Z,47.70
2019-02-23T11:25:09.766Z,48.50
2019-02-23T11:27:39.588Z,47.30
2019-02-23T11:30:17.104Z,47.10
2019-02-23T11:32:46.756Z,49.60
2019-02-23T11:35:17.337Z,49.20
2019-02-23T11:37:46.852Z,47.90
2019-02-23T11:40:16.051Z,48.20
2019-02-23T11:42:45.229Z,48.30
2019-02-23T11:45:14.616Z,50.70
2019-02-23T11:47:43.804Z,49.70
2019-02-23T11:50:13.088Z,48.80
2019-02-23T11:52:42.357Z,49.70
2019-02-23T11:55:11.630Z,48.00
2019-02-23T11:57:40.853Z,47.80
2019-02-23T12:00:10.355Z,46.10
2019-02-23T12:02:39.552Z,45.60
2019-02-23T12:05:09.208Z,47.00
2019-02-23T12:07:38.797Z,45.40
2019-02-23T12:10:09.909Z,44.30
2019-02-23T12:12:39.090Z,45.10
2019-02-23T12:15:09.250Z,46.30
2019-02-23T12:17:38.413Z,45.80
2019-02-23T12:20:07.835Z,44.80
2019-02-23T12:22:37.148Z,45.10
2019-02-23T12:25:06.405Z,45.10
2019-02-23T12:27:35.569Z,44.20
2019-02-23T12:30:05.823Z,42.40
2019-02-23T12:32:35.188Z,42.70
2019-02-23T12:35:05.063Z,42.70
2019-02-23T12:37:36.672Z,40.80
2019-02-23T12:40:06.218Z,41.50
2019-02-23T12:42:35.950Z,43.00
2019-02-23T12:45:05.397Z,41.50
2019-02-23T12:47:35.036Z,40.60
2019-02-23T12:50:05.310Z,41.70
2019-02-23T12:52:34.974Z,39.80
2019-02-23T12:55:04.320Z,40.20
2019-02-23T12:57:33.497Z,40.60
2019-02-23T13:00:02.897Z,39.40
2019-02-23T13:02:32.121Z,39.10
2019-02-23T13:05:01.432Z,37.50
2019-02-23T13:07:34.457Z,38.50
2019-02-23T13:10:03.780Z,38.10
2019-02-23T13:13:08.656Z,37.40
2019-02-23T13:16:00.756Z,37.50
2019-02-23T13:19:05.079Z,37.60
2019-02-23T13:21:47.272Z,37.00
2019-02-23T13:25:12.493Z,37.40
2019-02-23T13:28:40.524Z,36.20
2019-02-23T13:32:04.265Z,36.80
2019-02-23T13:35:07.837Z,36.90
2019-02-23T13:38:13.716Z,36.00
2019-02-23T13:41:30.922Z,37.80
2019-02-23T13:44:53.225Z,37.80
2019-02-23T13:47:51.768Z,37.70
2019-02-23T13:51:13.989Z,38.20
2019-02-23T13:54:24.543Z,37.90
2019-02-23T13:57:15.697Z,39.60
2019-02-23T14:00:37.964Z,37.90
2019-02-23T14:03:36.756Z,38.30
2019-02-23T14:06:51.628Z,38.50
2019-02-23T14:09:55.102Z,38.60
2019-02-23T14:13:04.206Z,38.80
2019-02-23T14:16:07.874Z,38.90
2019-02-23T14:19:01.034Z,38.80
2019-02-23T14:22:32.319Z,40.10
2019-02-23T14:25:50.734Z,39.40
2019-02-23T14:28:49.716Z,39.80
2019-02-23T14:31:58.844Z,40.30
2019-02-23T14:35:10.846Z,40.00
2019-02-23T14:38:05.708Z,40.70
2019-02-23T14:41:25.279Z,41.00
2019-02-23T14:44:20.046Z,40.20
2019-02-23T14:47:27.424Z,39.70
2019-02-23T14:50:21.822Z,39.30
2019-02-23T14:53:25.801Z,39.50
2019-02-23T14:56:30.412Z,39.00
2019-02-23T14:59:27.134Z,40.00
2019-02-23T15:02:25.981Z,38.60
2019-02-23T15:05:10.942Z,38.30
2019-02-23T15:08:05.476Z,40.00
2019-02-23T15:11:03.642Z,39.70
2019-02-23T15:14:13.763Z,40.30
2019-02-23T15:17:16.193Z,37.70
2019-02-23T15:20:33.402Z,38.70
2019-02-23T15:23:45.186Z,39.70
2019-02-23T15:27:07.558Z,40.10
2019-02-23T15:30:17.817Z,40.10
2019-02-23T15:33:42.274Z,40.50
2019-02-23T15:36:41.158Z,41.00
2019-02-23T15:40:09.195Z,40.80
2019-02-23T15:43:13.307Z,42.40
2019-02-23T15:46:24.624Z,42.20
2019-02-23T15:49:32.854Z,41.40
2019-02-23T15:52:03.653Z,41.60
2019-02-23T15:54:32.958Z,41.20
2019-02-23T15:57:02.241Z,40.80
2019-02-23T15:59:31.593Z,41.20
2019-02-23T16:02:00.940Z,41.20
2019-02-23T16:04:30.642Z,41.00
2019-02-23T16:07:00.606Z,40.80
2019-02-23T16:09:30.523Z,41.30
2019-02-23T16:12:00.305Z,40.50
2019-02-23T16:14:29.734Z,41.10
2019-02-23T16:16:59.098Z,41.20
2019-02-23T16:19:28.455Z,41.40
2019-02-23T16:21:57.773Z,41.90
2019-02-23T16:24:27.010Z,42.00
2019-02-23T16:27:00.177Z,41.50
2019-02-23T16:29:33.251Z,42.60
2019-02-23T16:32:04.222Z,41.80
2019-02-23T16:34:35.597Z,41.90
2019-02-23T16:37:07.181Z,42.30
2019-02-23T16:39:40.539Z,42.10
2019-02-23T16:42:12.159Z,42.50
2019-02-23T16:44:43.535Z,42.40
2019-02-23T16:47:21.841Z,41.90
2019-02-23T16:49:52.736Z,42.20
2019-02-23T16:52:23.952Z,42.30
2019-02-23T16:54:55.057Z,42.60
2019-02-23T16:57:24.860Z,42.60
2019-02-23T16:59:55.708Z,42.90
2019-02-23T17:02:25.010Z,43.00
2019-02-23T17:04:54.461Z,43.80
2019-02-23T17:07:23.780Z,43.80
2019-02-23T17:09:53.447Z,44.00
2019-02-23T17:12:22.961Z,45.00
2019-02-23T17:14:54.405Z,45.60
2019-02-23T17:17:24.522Z,45.70
2019-02-23T17:19:53.893Z,46.30
2019-02-23T17:22:23.389Z,47.00
2019-02-23T17:24:52.763Z,46.80
2019-02-23T17:27:35.451Z,46.90
2019-02-23T17:29:54.657Z,47.50
2019-02-23T17:32:24.016Z,48.00
2019-02-23T17:34:53.322Z,48.30
2019-02-23T17:37:24.247Z,48.80
2019-02-23T17:39:53.568Z,49.30
2019-02-23T17:42:28.164Z,49.80
2019-02-23T17:44:54.235Z,50.30
2019-02-23T17:47:23.641Z,50.70
2019-02-23T17:49:58.078Z,51.00
2019-02-23T17:52:27.498Z,51.40
2019-02-23T17:54:58.586Z,51.90
2019-02-23T17:57:27.877Z,52.50
2019-02-23T17:59:57.436Z,52.80
2019-02-23T18:02:27.416Z,53.10
2019-02-23T18:04:56.752Z,53.60
2019-02-23T18:07:26.168Z,53.80
2019-02-23T18:09:55.599Z,54.40
2019-02-23T18:12:25.348Z,54.70
2019-02-23T18:14:59.533Z,54.90
2019-02-23T18:17:30.381Z,55.50
2019-02-23T18:20:01.738Z,55.80
2019-02-23T18:22:31.142Z,56.10
2019-02-23T18:25:00.821Z,57.00
2019-02-23T18:27:30.186Z,57.20
2019-02-23T18:30:08.602Z,57.30
2019-02-23T18:32:31.058Z,57.10
2019-02-23T18:35:00.714Z,57.60
2019-02-23T18:37:30.284Z,57.60
2019-02-23T18:39:59.732Z,57.60
2019-02-23T18:42:29.158Z,57.60
2019-02-23T18:45:00.755Z,57.80
2019-02-23T18:47:30.078Z,58.50
2019-02-23T18:49:59.348Z,58.50
2019-02-23T18:52:28.809Z,59.80
2019-02-23T18:54:58.216Z,59.70
2019-02-23T18:57:27.632Z,60.00
2019-02-23T18:59:57.018Z,60.50
2019-02-23T19:02:26.476Z,61.70
2019-02-23T19:04:55.809Z,62.20
2019-02-23T19:07:26.274Z,63.00
2019-02-23T19:09:56.769Z,63.60
2019-02-23T19:12:26.160Z,63.70
2019-02-23T19:14:55.555Z,65.20
2019-02-23T19:17:25.004Z,65.90
2019-02-23T19:19:54.410Z,66.50
2019-02-23T19:22:24.155Z,67.40
2019-02-23T19:24:53.886Z,68.20
2019-02-23T19:27:23.512Z,67.30
2019-02-23T19:29:52.918Z,67.40
2019-02-23T19:32:22.570Z,69.10
2019-02-23T19:34:52.020Z,69.70
2019-02-23T19:37:23.143Z,68.10
2019-02-23T19:39:53.452Z,68.20
2019-02-23T19:42:22.833Z,67.20
2019-02-23T19:44:58.124Z,66.30
2019-02-23T19:47:35.818Z,66.30
2019-02-23T19:50:15.818Z,66.50
2019-02-23T19:52:45.918Z,67.20
2019-02-23T19:55:17.807Z,68.20
2019-02-23T19:57:47.337Z,68.60
2019-02-23T20:00:17.534Z,70.20
2019-02-23T20:02:47.816Z,70.00
2019-02-23T20:05:18.656Z,70.70
2019-02-23T20:07:48.630Z,69.70
2019-02-23T20:10:18.115Z,71.10
2019-02-23T20:12:48.563Z,72.50
2019-02-23T20:15:18.095Z,72.30
2019-02-23T20:17:48.242Z,74.10
2019-02-23T20:20:17.878Z,74.00
2019-02-23T20:22:47.835Z,74.80
2019-02-23T20:25:18.709Z,75.50
2019-02-23T20:27:48.317Z,75.70
2019-02-23T20:30:17.908Z,76.40
2019-02-23T20:32:47.883Z,78.50
2019-02-23T20:35:17.614Z,79.30
2019-02-23T20:37:47.726Z,77.40
2019-02-23T20:40:18.177Z,77.60
2019-02-23T20:42:49.042Z,77.70
2019-02-23T20:45:20.143Z,77.40
2019-02-23T20:47:50.269Z,76.10
2019-02-23T20:50:22.022Z,76.80
2019-02-23T20:52:51.375Z,77.70
2019-02-23T20:55:21.471Z,77.10
2019-02-23T20:57:51.545Z,76.40
2019-02-23T21:00:23.148Z,77.50
2019-02-23T21:02:54.230Z,77.00
2019-02-23T21:05:23.758Z,77.40
2019-02-23T21:07:53.916Z,79.00
2019-02-23T21:10:23.633Z,78.70
2019-02-23T21:12:53.167Z,79.50
2019-02-23T21:15:22.586Z,79.70
2019-02-23T21:17:51.993Z,77.70
2019-02-23T21:20:21.385Z,79.50
2019-02-23T21:22:52.677Z,79.00
2019-02-23T21:25:22.255Z,77.80
2019-02-23T21:27:51.605Z,76.40
2019-02-23T21:33:03.841Z,74.00
2019-02-23T21:35:33.374Z,74.90
2019-02-23T21:38:03.118Z,75.70
2019-02-23T21:40:32.542Z,76.20
2019-02-23T21:43:02.454Z,76.10
2019-02-23T21:45:31.940Z,77.60
2019-02-23T21:48:01.707Z,76.60
2019-02-23T21:50:31.214Z,77.10
2019-02-23T21:53:00.469Z,78.70
2019-02-23T21:55:29.873Z,79.80
2019-02-23T21:58:00.906Z,80.50
2019-02-23T22:00:30.512Z,79.70
2019-02-23T22:03:00.413Z,80.80
2019-02-23T22:05:30.103Z,80.70
2019-02-23T22:08:00.006Z,80.30
2019-02-23T22:10:30.096Z,80.50
2019-02-23T22:13:01.717Z,79.40
2019-02-23T22:15:32.225Z,81.30
2019-02-23T22:18:01.629Z,80.90
2019-02-23T22:20:31.101Z,82.20
2019-02-23T22:23:00.476Z,81.50
2019-02-23T22:25:32.585Z,81.10
2019-02-23T22:28:06.242Z,81.40
2019-02-23T22:30:36.037Z,82.80
2019-02-23T22:33:05.312Z,82.80
2019-02-23T22:35:35.344Z,82.80
2019-02-23T22:38:07.107Z,83.00
2019-02-23T22:40:36.672Z,83.00
2019-02-23T22:43:06.299Z,83.20
2019-02-23T22:45:36.967Z,84.40
2019-02-23T22:48:06.806Z,84.40
2019-02-23T22:50:36.582Z,85.80
2019-02-23T22:53:06.228Z,87.20
2019-02-23T22:55:35.616Z,87.90
2019-02-23T22:58:05.131Z,89.50
2019-02-23T23:00:59.813Z,89.50
2019-02-23T23:03:29.606Z,89.60
2019-02-23T23:06:02.247Z,90.00
2019-02-23T23:08:31.650Z,89.70
2019-02-23T23:11:07.136Z,90.10
2019-02-23T23:13:46.971Z,89.80
2019-02-23T23:16:22.701Z,89.70
2019-02-23T23:18:56.429Z,90.00
2019-02-23T23:21:28.014Z,90.60
2019-02-23T23:23:59.174Z,90.80
2019-02-23T23:26:30.927Z,90.90
2019-02-23T23:29:02.998Z,90.90
2019-02-23T23:31:35.883Z,90.80
2019-02-23T23:34:07.181Z,90.90
2019-02-23T23:36:39.317Z,90.80
2019-02-23T23:39:09.478Z,90.60
2019-02-23T23:41:47.421Z,90.60
2019-02-23T23:44:23.641Z,88.50
2019-02-23T23:46:57.571Z,89.20
2019-02-23T23:49:34.235Z,87.80
2019-02-23T23:52:03.435Z,90.40
2019-02-23T23:54:33.250Z,91.20
2019-02-23T23:57:02.419Z,91.70
2019-02-23T23:59:31.683Z,90.50
